Time;durP1;ratioP1;P1;durP2;ratioP2;P2;SDS_P1;SDS_P2;PMS_P1;PMS_P2;Temp;Humidity;BMP_temperature;BMP_pressure;BME280_temperature;BME280_humidity;BME280_pressure;Samples;Min_cycle;Max_cycle;Signal;HPM_P1;HPM_P2
2022/04/28 00:01:54;;;;;;;;;43.00;33.25;;;;;13.39;52.64;102212.50;5050236;28;45350;-70
2022/04/28 00:04:19;;;;;;;;;46.75;38.50;;;;;13.34;53.08;102210.19;5044386;28;45424;-70
2022/04/28 00:06:45;;;;;;;;;40.75;33.00;;;;;13.32;52.93;102214.91;5060460;28;45392;-70
2022/04/28 00:09:10;;;;;;;;;38.75;34.75;;;;;13.24;52.89;102212.81;5055387;28;45426;-70
2022/04/28 00:11:35;;;;;;;;;44.50;37.00;;;;;13.14;52.85;102195.50;5046619;28;48394;-70
2022/04/28 00:14:01;;;;;;;;;43.75;37.25;;;;;13.21;52.61;102207.63;5059565;28;45270;-70
2022/04/28 00:16:27;;;;;;;;;48.25;39.25;;;;;13.03;54.09;102187.31;5048002;28;45511;-70
2022/04/28 00:18:53;;;;;;;;;41.25;36.50;;;;;13.01;54.17;102207.53;5057526;28;45166;-70
2022/04/28 00:21:18;;;;;;;;;40.50;35.50;;;;;13.00;53.78;102206.69;5048398;28;45458;-70
2022/04/28 00:23:44;;;;;;;;;38.75;34.25;;;;;13.01;53.64;102211.13;5054824;28;45395;-71
2022/04/28 00:26:10;;;;;;;;;47.00;37.50;;;;;12.93;53.68;102208.16;5047132;28;45516;-70
2022/04/28 00:28:35;;;;;;;;;43.50;37.00;;;;;12.88;53.72;102202.25;5062915;28;45506;-70
2022/04/28 00:31:01;;;;;;;;;43.75;35.75;;;;;12.81;54.28;102203.75;5045976;28;46498;-70
2022/04/28 00:33:27;;;;;;;;;33.50;31.25;;;;;12.75;54.31;102187.91;5050719;28;45438;-71
2022/04/28 00:35:53;;;;;;;;;44.75;35.75;;;;;12.75;54.22;102198.81;5046012;28;45362;-71
2022/04/28 00:38:18;;;;;;;;;38.75;34.00;;;;;12.74;54.53;102197.94;5052305;28;45372;-70
2022/04/28 00:40:44;;;;;;;;;42.75;33.75;;;;;12.73;54.25;102195.34;5045981;28;45432;-70
2022/04/28 00:43:18;;;;;;;;;46.50;38.50;;;;;12.67;54.89;102196.72;5047681;28;45560;-70
2022/04/28 00:45:46;;;;;;;;;37.75;33.25;;;;;12.59;54.87;102196.47;5045019;28;45445;-71
2022/04/28 00:50:59;;;;;;;;;46.00;38.00;;;;;12.62;55.04;102200.81;5049780;28;45937;-70
2022/04/28 00:53:28;;;;;;;;;42.00;35.25;;;;;12.55;54.76;102194.13;5053717;28;45328;-71
2022/04/28 00:55:54;;;;;;;;;38.50;32.00;;;;;12.43;54.92;102194.13;5043206;28;45437;-70
2022/04/28 00:58:19;;;;;;;;;37.50;33.00;;;;;12.35;55.18;102184.84;5054259;28;45620;-71
2022/04/28 01:00:45;;;;;;;;;32.00;29.00;;;;;12.20;55.91;102186.97;5043092;28;46108;-70
2022/04/28 01:03:11;;;;;;;;;35.50;32.75;;;;;12.20;55.78;102186.13;5051236;28;45755;-70
2022/04/28 01:05:37;;;;;;;;;35.75;33.50;;;;;12.23;55.53;102194.91;5046797;28;45476;-71
2022/04/28 01:08:02;;;;;;;;;37.75;33.75;;;;;12.17;55.92;102198.13;5049390;28;45410;-71
2022/04/28 01:10:28;;;;;;;;;34.50;31.25;;;;;12.22;55.92;102193.16;5054104;28;46646;-71
2022/04/28 01:12:53;;;;;;;;;38.00;36.00;;;;;12.09;56.25;102192.41;5055872;28;45760;-70
2022/04/28 01:15:19;;;;;;;;;39.75;33.25;;;;;12.15;55.89;102189.19;5054214;28;45334;-71
2022/04/28 01:17:44;;;;;;;;;41.00;30.00;;;;;12.11;56.70;102197.75;5049677;28;46051;-70
2022/04/28 01:20:10;;;;;;;;;34.50;30.25;;;;;12.10;56.08;102183.25;5052644;28;46110;-70
2022/04/28 01:22:36;;;;;;;;;30.50;27.00;;;;;12.11;55.95;102185.00;5046252;28;45576;-71
2022/04/28 01:25:08;;;;;;;;;34.25;32.25;;;;;12.15;55.99;102188.31;5051713;28;45329;-71
2022/04/28 01:27:37;;;;;;;;;35.75;31.75;;;;;12.07;56.13;102192.53;5051557;28;45568;-71
2022/04/28 01:30:15;;;;;;;;;36.75;30.75;;;;;12.01;56.18;102181.25;5060335;28;46499;-71
2022/04/28 01:32:40;;;;;;;;;35.75;29.00;;;;;11.86;56.71;102177.91;5047779;28;45510;-70
2022/04/28 01:35:06;;;;;;;;;35.25;31.75;;;;;11.93;56.34;102184.59;5053839;28;45507;-71
2022/04/28 01:37:32;;;;;;;;;31.75;28.25;;;;;11.89;56.71;102185.84;5055141;28;45605;-71
2022/04/28 01:39:57;;;;;;;;;42.75;32.25;;;;;11.86;57.29;102185.22;5050750;28;53350;-70
2022/04/28 01:42:23;;;;;;;;;30.25;28.25;;;;;11.80;56.89;102189.28;5052422;28;45436;-70
2022/04/28 01:44:49;;;;;;;;;29.50;27.50;;;;;11.79;57.18;102183.97;5046077;28;45509;-70
2022/04/28 01:47:15;;;;;;;;;41.00;33.50;;;;;11.86;56.86;102190.66;5051483;28;45409;-70
2022/04/28 01:49:41;;;;;;;;;32.25;27.25;;;;;11.84;56.57;102184.44;5051302;28;46123;-70
2022/04/28 01:54:59;;;;;;;;;37.50;32.50;;;;;11.63;57.44;102190.56;5050226;28;45425;-70
2022/04/28 01:57:27;;;;;;;;;34.00;28.50;;;;;11.59;58.31;102196.41;5052943;28;45559;-71
2022/04/28 01:59:53;;;;;;;;;32.50;32.50;;;;;11.47;58.40;102186.47;5059910;28;48131;-71
2022/04/28 02:02:18;;;;;;;;;35.00;27.00;;;;;11.45;58.82;102193.88;5051687;28;45342;-70
2022/04/28 02:04:43;;;;;;;;;36.75;30.50;;;;;11.42;58.44;102200.41;5058739;28;45354;-70
2022/04/28 02:07:11;;;;;;;;;32.25;29.00;;;;;11.45;58.08;102193.88;5051118;28;47949;-70
2022/04/28 02:09:36;;;;;;;;;31.00;26.25;;;;;11.51;57.70;102205.16;5057606;28;45371;-70
2022/04/28 02:12:01;;;;;;;;;38.50;32.75;;;;;11.50;57.75;102194.38;5049060;28;45492;-71
2022/04/28 02:14:27;;;;;;;;;32.50;30.50;;;;;11.54;57.42;102198.63;5062115;28;45207;-71
2022/04/28 02:16:52;;;;;;;;;30.00;25.00;;;;;11.53;57.38;102191.44;5051272;28;45508;-70
2022/04/28 02:19:18;;;;;;;;;32.00;25.75;;;;;11.55;56.97;102206.63;5058065;28;45452;-70
2022/04/28 02:21:44;;;;;;;;;31.50;29.25;;;;;11.50;57.36;102203.41;5047936;28;45319;-71
2022/04/28 02:24:09;;;;;;;;;39.75;28.75;;;;;11.47;57.43;102203.63;5057556;28;45252;-70
2022/04/28 02:26:34;;;;;;;;;35.00;28.00;;;;;11.40;57.83;102198.78;5047314;28;45458;-71
2022/04/28 02:29:00;;;;;;;;;15.25;8.25;;;;;11.34;57.54;102197.41;5065383;28;46516;-71
2022/04/28 02:31:25;;;;;;;;;31.75;27.75;;;;;11.27;58.33;102204.31;5048304;28;45659;-71
2022/04/28 02:33:50;;;;;;;;;33.75;27.00;;;;;11.20;58.85;102197.59;5054509;28;45341;-70
2022/04/28 02:36:16;;;;;;;;;38.75;31.50;;;;;11.11;58.78;102206.47;5047466;28;45381;-70
2022/04/28 02:38:41;;;;;;;;;28.75;26.25;;;;;11.02;58.85;102199.91;5052881;28;46495;-70
2022/04/28 02:41:08;;;;;;;;;32.75;29.25;;;;;11.10;58.27;102216.50;5045650;28;45381;-70
2022/04/28 02:43:34;;;;;;;;;34.00;29.00;;;;;11.01;58.64;102209.03;5052049;28;45440;-71
2022/04/28 02:45:59;;;;;;;;;33.50;27.75;;;;;10.93;58.74;102204.16;5045743;28;45326;-70
2022/04/28 02:48:25;;;;;;;;;29.75;29.75;;;;;10.95;59.60;102212.22;5054081;28;46985;-71
2022/04/28 02:50:50;;;;;;;;;26.25;23.50;;;;;10.97;58.26;102217.50;5044792;28;45393;-71
2022/04/28 02:53:16;;;;;;;;;32.00;29.75;;;;;10.87;59.49;102214.63;5056254;28;45221;-70
2022/04/28 02:55:41;;;;;;;;;33.25;26.75;;;;;10.84;59.89;102218.44;5045715;28;45606;-70
2022/04/28 02:58:08;;;;;;;;;29.50;25.75;;;;;10.81;59.96;102221.38;5055740;28;45346;-70
2022/04/28 03:00:34;;;;;;;;;31.25;26.50;;;;;10.74;60.32;102209.22;5045184;28;45215;-70
2022/04/28 03:03:00;;;;;;;;;36.50;30.50;;;;;10.65;60.47;102219.94;5049285;28;45368;-70
2022/04/28 03:05:25;;;;;;;;;35.00;27.50;;;;;10.62;60.49;102218.28;5057822;28;45176;-70
2022/04/28 03:10:51;;;;;;;;;32.50;27.75;;;;;10.79;59.86;102234.25;5054646;28;45448;-70
2022/04/28 03:13:18;;;;;;;;;34.75;31.75;;;;;10.76;60.39;102229.03;5055840;28;45560;-70
2022/04/28 03:15:45;;;;;;;;;33.50;29.50;;;;;10.74;60.16;102224.69;5051830;28;45239;-71
2022/04/28 03:18:12;;;;;;;;;29.50;27.25;;;;;10.63;60.84;102225.47;5049860;28;46622;-70
2022/04/28 03:20:37;;;;;;;;;38.75;32.75;;;;;10.64;61.01;102224.50;5056778;28;45378;-70
2022/04/28 03:23:03;;;;;;;;;41.50;34.50;;;;;10.60;60.87;102222.97;5053040;28;45445;-70
2022/04/28 03:25:28;;;;;;;;;39.00;33.75;;;;;10.61;61.15;102232.88;5053514;28;45340;-71
2022/04/28 03:27:56;;;;;;;;;40.00;33.75;;;;;10.59;61.14;102221.25;5058482;28;46964;-70
2022/04/28 03:30:22;;;;;;;;;45.00;35.75;;;;;10.59;61.04;102221.25;5051287;27;45354;-70
2022/04/28 03:32:47;;;;;;;;;34.25;31.00;;;;;10.63;60.72;102228.19;5046772;28;45189;-71
2022/04/28 03:35:14;;;;;;;;;36.50;34.50;;;;;10.66;60.66;102217.09;5049797;28;45493;-70
2022/04/28 03:37:39;;;;;;;;;32.25;28.75;;;;;10.61;60.94;102219.28;5050620;28;46589;-71
2022/04/28 03:40:05;;;;;;;;;38.25;34.00;;;;;10.43;61.50;102217.91;5049130;28;45323;-70
2022/04/28 03:42:31;;;;;;;;;45.75;35.00;;;;;10.41;61.75;102222.59;5051547;28;45487;-70
2022/04/28 03:44:56;;;;;;;;;37.25;34.00;;;;;10.44;61.74;102223.25;5048246;28;45652;-71
2022/04/28 03:47:21;;;;;;;;;40.00;34.25;;;;;10.44;61.21;102225.09;5049635;28;46819;-71
2022/04/28 03:49:47;;;;;;;;;29.50;24.50;;;;;10.42;61.38;102222.50;5049019;28;45388;-71
2022/04/28 03:52:12;;;;;;;;;36.25;31.50;;;;;10.44;61.75;102228.69;5048867;28;45477;-70
2022/04/28 03:54:38;;;;;;;;;43.75;33.50;;;;;10.44;61.57;102225.97;5050790;28;45562;-70
2022/04/28 03:57:03;;;;;;;;;33.25;28.75;;;;;10.41;61.19;102222.59;5059174;28;47857;-70
2022/04/28 03:59:29;;;;;;;;;43.00;34.25;;;;;10.43;61.19;102217.91;5058759;28;45317;-70
2022/04/28 04:01:54;;;;;;;;;37.75;34.00;;;;;10.43;61.26;102226.06;5049305;28;45536;-70
2022/04/28 04:04:20;;;;;;;;;31.50;30.50;;;;;10.46;60.59;102225.84;5054795;28;45390;-70
2022/04/28 04:06:45;;;;;;;;;41.25;34.50;;;;;10.40;61.66;102224.44;5044164;28;47163;-70
2022/04/28 04:09:10;;;;;;;;;38.75;29.75;;;;;10.44;61.17;102228.69;5059450;28;45689;-71
2022/04/28 04:11:36;;;;;;;;;47.50;34.00;;;;;10.43;61.09;102236.94;5047938;28;45299;-70
2022/04/28 04:14:01;;;;;;;;;36.50;28.75;;;;;10.38;61.38;102233.66;5057400;28;45546;-70
2022/04/28 04:16:26;;;;;;;;;48.00;34.75;;;;;10.42;61.39;102235.19;5047153;28;45164;-71
2022/04/28 04:18:52;;;;;;;;;26.25;25.00;;;;;10.34;61.94;102251.19;5055531;28;45275;-70
2022/04/28 04:21:19;;;;;;;;;45.75;32.75;;;;;10.26;62.43;102246.31;5047123;28;45291;-71
2022/04/28 04:23:44;;;;;;;;;36.75;32.75;;;;;10.20;62.62;102241.31;5057315;28;45429;-71
2022/04/28 04:26:10;;;;;;;;;30.50;26.75;;;;;10.22;62.73;102243.94;5046126;28;47132;-70
2022/04/28 04:28:35;;;;;;;;;51.50;35.50;;;;;10.19;62.63;102245.00;5062910;28;45413;-70
2022/04/28 04:33:44;;;;;;;;;39.00;34.25;;;;;10.10;62.95;102251.03;5054179;28;45236;-70
2022/04/28 04:36:10;;;;;;;;;47.00;34.50;;;;;10.14;63.03;102255.28;5043512;28;45422;-70
2022/04/28 04:38:35;;;;;;;;;41.25;35.75;;;;;10.19;62.82;102250.44;5049604;28;45337;-70
2022/04/28 04:41:00;;;;;;;;;46.00;36.00;;;;;10.23;62.24;102251.94;5043629;28;45687;-70
2022/04/28 04:43:26;;;;;;;;;40.50;35.00;;;;;10.24;62.60;102260.97;5054220;28;45614;-71
2022/04/28 04:45:51;;;;;;;;;48.25;39.25;;;;;10.24;62.53;102261.81;5042886;28;46135;-71
2022/04/28 04:48:17;;;;;;;;;36.50;30.00;;;;;10.24;62.45;102258.25;5053718;28;45390;-70
2022/04/28 04:50:42;;;;;;;;;39.75;37.25;;;;;10.22;63.11;102265.66;5043265;28;45469;-70
2022/04/28 04:53:07;;;;;;;;;47.75;37.00;;;;;10.24;62.85;102261.81;5054468;28;45438;-70
2022/04/28 04:55:34;;;;;;;;;46.75;36.25;;;;;10.29;62.63;102272.38;5042924;28;45272;-71
2022/04/28 04:58:00;;;;;;;;;41.00;34.00;;;;;10.33;62.45;102268.47;5057678;28;45438;-70
2022/04/28 05:00:25;;;;;;;;;44.75;36.25;;;;;10.42;62.03;102273.25;5042670;28;45399;-70
2022/04/28 05:02:51;;;;;;;;;44.25;35.50;;;;;10.43;61.96;102264.13;5047925;28;45319;-70
2022/04/28 05:05:16;;;;;;;;;40.75;32.25;;;;;10.51;61.33;102261.72;5054891;28;45465;-70
2022/04/28 05:07:42;;;;;;;;;48.00;36.75;;;;;10.48;61.29;102260.06;5051180;28;45472;-70
2022/04/28 05:10:08;;;;;;;;;46.00;37.75;;;;;10.49;61.82;102274.53;5054433;28;45282;-70
2022/04/28 05:12:34;;;;;;;;;44.75;37.00;;;;;10.51;61.57;102280.75;5046906;28;45299;-71
2022/04/28 05:14:59;;;;;;;;;32.25;31.25;;;;;10.54;61.33;102266.91;5051137;28;45310;-70
2022/04/28 05:17:24;;;;;;;;;46.75;36.75;;;;;10.64;60.53;102276.13;5048176;28;45337;-70
2022/04/28 05:19:50;;;;;;;;;41.50;34.00;;;;;10.64;61.01;102273.44;5051587;28;45718;-70
2022/04/28 05:22:15;;;;;;;;;44.50;37.00;;;;;10.68;61.39;102274.94;5047812;28;45406;-70
2022/04/28 05:24:41;;;;;;;;;50.25;39.25;;;;;10.74;60.85;102289.94;5050249;28;45558;-70
2022/04/28 05:27:06;;;;;;;;;29.00;26.00;;;;;10.63;61.08;102277.13;5044265;28;45658;-69
2022/04/28 05:29:31;;;;;;;;;49.00;36.00;;;;;10.87;61.03;102288.94;5062712;28;45649;-69
2022/04/28 05:31:56;;;;;;;;;44.00;37.25;;;;;11.97;58.51;102288.75;5044580;28;45353;-70
2022/04/28 05:34:22;;;;;;;;;45.00;37.50;;;;;12.97;55.35;102294.25;5046456;28;48260;-70
2022/04/28 05:36:48;;;;;;;;;51.50;39.00;;;;;12.51;55.51;102298.97;5042720;28;45812;-70
2022/04/28 05:39:15;;;;;;;;;50.75;40.00;;;;;11.95;56.79;102307.06;5050877;28;45486;-69
2022/04/28 05:41:41;;;;;;;;;46.25;39.00;;;;;11.87;57.56;102312.22;5045010;28;45590;-70
2022/04/28 05:46:52;;;;;;;;;52.75;38.00;;;;;11.88;57.69;102311.25;5043734;28;45445;-69
2022/04/28 05:49:17;;;;;;;;;46.00;38.50;;;;;11.58;58.37;102314.44;5050772;28;45375;-69
2022/04/28 05:51:43;;;;;;;;;44.50;36.25;;;;;11.49;59.07;102310.53;5044136;28;45211;-69
2022/04/28 05:54:08;;;;;;;;;46.00;36.00;;;;;11.61;58.67;102320.53;5050296;28;46691;-69
2022/04/28 05:56:33;;;;;;;;;45.75;35.00;;;;;11.77;58.38;102322.06;5043387;28;45316;-70
2022/04/28 05:58:59;;;;;;;;;49.50;38.00;;;;;11.94;58.01;102318.94;5050282;28;45588;-70
2022/04/28 06:01:24;;;;;;;;;42.75;34.00;;;;;12.11;57.75;102328.53;5051969;28;45481;-70
2022/04/28 06:03:50;;;;;;;;;41.50;34.25;;;;;12.12;56.94;102317.50;5048141;28;46659;-70
2022/04/28 06:06:15;;;;;;;;;41.25;33.25;;;;;12.36;56.48;102320.13;5044639;28;46235;-70
2022/04/28 06:08:40;;;;;;;;;49.75;36.75;;;;;12.85;56.08;102314.34;5054929;28;45425;-70
2022/04/28 06:11:06;;;;;;;;;47.25;36.50;;;;;13.12;54.32;102328.44;5046556;28;45545;-70
2022/04/28 06:13:32;;;;;;;;;47.50;36.75;;;;;13.13;54.50;102329.34;5053014;28;45510;-70
2022/04/28 06:16:00;;;;;;;;;38.25;35.00;;;;;13.37;54.11;102331.91;5047092;28;45279;-70
2022/04/28 06:18:27;;;;;;;;;50.25;38.00;;;;;13.21;54.45;102338.66;5052180;28;45338;-70
2022/04/28 06:20:53;;;;;;;;;50.50;38.75;;;;;13.01;54.82;102333.91;5046852;28;45301;-70
2022/04/28 06:23:18;;;;;;;;;47.75;38.75;;;;;12.98;55.11;102342.34;5049048;28;45503;-70
2022/04/28 06:25:43;;;;;;;;;43.75;38.25;;;;;12.66;55.68;102338.63;5046471;28;45224;-70
2022/04/28 06:28:13;;;;;;;;;49.00;38.75;;;;;12.32;56.57;102337.72;5060501;28;45804;-70
2022/04/28 06:30:39;;;;;;;;;46.00;39.25;;;;;12.34;56.63;102346.66;5050305;28;45476;-70
2022/04/28 06:33:05;;;;;;;;;47.00;38.75;;;;;12.66;56.19;102346.81;5047306;28;46418;-70
2022/04/28 06:35:33;;;;;;;;;52.00;41.50;;;;;13.65;53.61;102342.25;5049451;28;45446;-70
2022/04/28 06:37:58;;;;;;;;;45.50;37.50;;;;;14.27;51.82;102341.44;5045102;28;45284;-70
2022/04/28 06:40:24;;;;;;;;;47.50;36.75;;;;;14.43;51.77;102344.59;5059452;28;45338;-70
2022/04/28 06:42:52;;;;;;;;;46.25;38.75;;;;;14.29;51.35;102350.38;5057164;28;45441;-69
2022/04/28 06:45:17;;;;;;;;;44.25;38.50;;;;;14.17;51.32;102349.56;5045228;28;45318;-71
2022/04/28 06:47:43;;;;;;;;;54.00;40.00;;;;;14.00;51.86;102353.78;5052743;28;45298;-69
2022/04/28 06:50:09;;;;;;;;;49.75;39.75;;;;;13.90;52.29;102358.28;5047494;28;45349;-70
2022/04/28 06:52:38;;;;;;;;;47.75;35.75;;;;;13.54;53.45;102356.78;5046758;28;46842;-69
2022/04/28 06:55:06;;;;;;;;;40.00;36.00;;;;;13.85;53.21;102359.66;5043124;28;45458;-69
2022/04/28 06:57:31;;;;;;;;;45.00;37.75;;;;;13.96;52.69;102355.00;5049970;28;45740;-70
2022/04/28 06:59:57;;;;;;;;;40.00;36.00;;;;;14.09;52.17;102364.91;5043784;28;45334;-70
2022/04/28 07:02:22;;;;;;;;;51.25;40.00;;;;;13.96;52.59;102363.22;5048698;28;45322;-70
2022/04/28 07:04:48;;;;;;;;;49.00;38.75;;;;;14.12;52.09;102370.09;5055868;28;45287;-68
2022/04/28 07:07:14;;;;;;;;;52.25;41.00;;;;;13.87;52.59;102364.03;5048704;28;46162;-69
2022/04/28 07:09:39;;;;;;;;;47.50;35.00;;;;;14.14;52.67;102368.09;5056334;28;45319;-69
2022/04/28 07:12:05;;;;;;;;;47.50;38.75;;;;;14.27;52.19;102371.50;5046652;28;45557;-69
2022/04/28 07:14:30;;;;;;;;;54.25;42.50;;;;;14.36;51.92;102371.59;5060585;28;45470;-69
2022/04/28 07:16:55;;;;;;;;;58.00;45.00;;;;;14.38;51.48;102371.50;5048952;28;45420;-69
2022/04/28 07:19:21;;;;;;;;;50.50;40.25;;;;;14.53;51.32;102367.41;5056125;28;45619;-69
2022/04/28 07:21:46;;;;;;;;;48.50;37.75;;;;;14.70;50.72;102358.56;5045072;28;47158;-69
2022/04/28 07:24:11;;;;;;;;;48.25;38.50;;;;;14.91;50.63;102365.84;5055644;28;45382;-70
2022/04/28 07:26:37;;;;;;;;;40.75;36.50;;;;;15.01;50.44;102356.69;5045229;28;45306;-69
2022/04/28 07:29:05;;;;;;;;;60.50;47.00;;;;;15.17;50.20;102368.00;5064098;28;45383;-69
2022/04/28 07:31:30;;;;;;;;;44.50;38.50;;;;;14.78;50.41;102371.56;5045833;28;46261;-70
2022/04/28 07:33:56;;;;;;;;;46.25;37.75;;;;;14.87;51.02;102369.88;5049154;28;45402;-69
2022/04/28 07:36:21;;;;;;;;;49.00;40.50;;;;;14.93;50.40;102363.84;5048842;28;45489;-69
2022/04/28 07:38:46;;;;;;;;;47.00;36.50;;;;;14.97;50.29;102371.69;5051616;28;45555;-69
2022/04/28 07:41:13;;;;;;;;;47.50;36.50;;;;;15.01;50.35;102372.25;5043999;28;46272;-69
2022/04/28 07:43:38;;;;;;;;;51.00;40.75;;;;;15.13;49.78;102376.63;5054336;28;45385;-70
2022/04/28 07:46:04;;;;;;;;;50.25;39.75;;;;;15.43;49.58;102370.22;5049431;28;45344;-69
2022/04/28 07:48:29;;;;;;;;;47.00;37.50;;;;;15.74;49.24;102371.03;5053289;28;45485;-70
2022/04/28 07:50:54;;;;;;;;;47.50;37.25;;;;;16.02;49.06;102370.19;5043685;28;45286;-70
2022/04/28 07:53:21;;;;;;;;;48.00;39.00;;;;;16.14;47.62;102362.69;5054803;28;45499;-70
2022/04/28 07:56:10;;;;;;;;;48.50;39.00;;;;;15.90;48.21;102369.47;5050867;28;45295;-69
2022/04/28 07:58:32;;;;;;;;;50.25;35.75;;;;;15.99;48.22;102370.50;5052061;28;45303;-70
2022/04/28 08:00:59;;;;;;;;;37.25;31.75;;;;;16.30;48.13;102376.66;5052627;28;45757;-69
2022/04/28 08:03:24;;;;;;;;;49.00;41.00;;;;;16.63;46.97;102386.31;5052231;28;45334;-70
2022/04/28 08:05:50;;;;;;;;;47.50;38.25;;;;;16.83;46.36;102379.75;5053030;28;45315;-69
2022/04/28 08:08:15;;;;;;;;;44.25;37.00;;;;;17.10;46.75;102376.16;5051469;28;46359;-70
2022/04/28 08:10:41;;;;;;;;;46.25;37.75;;;;;17.25;44.92;102382.03;5052676;28;47648;-70
2022/04/28 08:13:06;;;;;;;;;42.00;35.00;;;;;17.50;44.99;102381.31;5053661;28;45344;-70
2022/04/28 08:15:31;;;;;;;;;49.25;38.75;;;;;17.34;44.78;102381.13;5053564;28;45468;-70
2022/04/28 08:17:57;;;;;;;;;42.50;36.25;;;;;17.42;45.45;102376.59;5048651;28;45302;-69
2022/04/28 08:20:22;;;;;;;;;47.25;37.50;;;;;17.64;44.46;102383.56;5043454;28;45514;-69
2022/04/28 08:22:47;;;;;;;;;39.75;35.00;;;;;17.26;45.25;102361.78;5049168;28;45461;-69
2022/04/28 08:25:13;;;;;;;;;39.50;34.00;;;;;17.23;45.40;102384.09;5051471;28;45371;-69
2022/04/28 08:27:38;;;;;;;;;43.75;35.00;;;;;17.60;45.45;102382.13;5052717;28;45708;-70
2022/04/28 08:30:05;;;;;;;;;44.00;37.00;;;;;17.70;45.02;102380.19;5056758;27;45349;-69
2022/04/28 08:32:30;;;;;;;;;45.50;37.00;;;;;17.82;44.30;102375.34;5045593;28;45292;-69
2022/04/28 08:34:55;;;;;;;;;45.25;37.50;;;;;18.34;43.63;102373.56;5048510;28;45306;-69
2022/04/28 08:37:21;;;;;;;;;42.00;35.00;;;;;18.33;42.10;102377.38;5045777;28;45522;-69
2022/04/28 08:39:46;;;;;;;;;42.25;34.75;;;;;18.94;43.08;102384.69;5047863;28;45322;-69
2022/04/28 08:42:13;;;;;;;;;32.25;29.00;;;;;19.49;41.02;102370.53;5046163;28;45428;-70
2022/04/28 08:44:39;;;;;;;;;38.50;34.00;;;;;19.68;40.02;102381.25;5049571;28;45177;-69
2022/04/28 08:47:06;;;;;;;;;37.25;31.50;;;;;19.86;40.64;102376.47;5049945;28;45438;-69
2022/04/28 08:49:32;;;;;;;;;33.75;30.50;;;;;20.09;40.36;102383.03;5050722;27;45830;-69
2022/04/28 08:51:59;;;;;;;;;42.50;34.50;;;;;20.29;38.81;102377.22;5044770;28;45436;-69
2022/04/28 08:54:27;;;;;;;;;38.25;34.50;;;;;19.64;39.21;102378.00;5052654;28;45346;-69
2022/04/28 08:56:54;;;;;;;;;36.00;33.25;;;;;19.97;39.34;102378.91;5048161;28;45770;-71
2022/04/28 08:59:20;;;;;;;;;36.25;31.75;;;;;20.51;39.03;102373.78;5053755;28;47742;-69
2022/04/28 09:01:46;;;;;;;;;39.00;32.50;;;;;20.69;38.62;102365.28;5047854;28;45193;-71
2022/04/28 09:04:12;;;;;;;;;33.50;30.00;;;;;20.87;38.84;102364.03;5053772;28;45462;-69
2022/04/28 09:06:42;;;;;;;;;37.75;33.00;;;;;20.44;37.31;102364.47;5058674;28;45789;-69
2022/04/28 09:09:10;;;;;;;;;39.25;34.25;;;;;20.04;38.09;102360.63;5055988;28;47997;-70
2022/04/28 09:11:39;;;;;;;;;31.00;26.75;;;;;19.94;39.66;102362.72;5045992;28;45305;-70
2022/04/28 09:14:18;;;;;;;;;38.75;33.00;;;;;20.37;39.14;102357.91;5045595;28;45496;-69
2022/04/28 09:16:48;;;;;;;;;34.00;32.00;;;;;20.32;38.94;102349.25;5045790;28;45445;-69
2022/04/28 09:19:15;;;;;;;;;34.75;30.00;;;;;20.30;38.82;102362.38;5052617;28;48625;-69
2022/04/28 09:21:41;;;;;;;;;33.50;31.50;;;;;20.57;37.57;102353.75;5044712;28;45342;-70
2022/04/28 09:24:09;;;;;;;;;33.50;29.25;;;;;20.48;37.06;102338.22;5051236;28;45280;-69
2022/04/28 09:26:35;;;;;;;;;33.00;30.50;;;;;20.51;37.78;102348.94;5044762;28;45386;-70
2022/04/28 09:29:02;;;;;;;;;21.50;20.75;;;;;20.82;37.56;102344.34;5059163;28;48392;-69
2022/04/28 09:31:38;;;;;;;;;31.00;28.25;;;;;21.21;37.84;102344.44;5046935;28;45659;-69
2022/04/28 09:34:18;;;;;;;;;29.00;25.50;;;;;21.62;37.06;102336.81;5050730;28;45525;-69
2022/04/28 09:36:45;;;;;;;;;28.00;24.75;;;;;21.81;36.90;102334.59;5044519;28;45418;-69
2022/04/28 09:44:49;;;;;;;;;31.00;23.25;;;;;22.59;34.70;102337.03;5047838;28;45379;-71
2022/04/28 09:47:14;;;;;;;;;30.50;25.25;;;;;22.74;34.46;102330.50;5050495;28;45465;-69
2022/04/28 09:49:41;;;;;;;;;31.00;29.50;;;;;22.87;34.38;102335.38;5042063;28;46956;-70
2022/04/28 09:52:09;;;;;;;;;28.75;28.75;;;;;22.61;33.86;102332.19;5048695;28;45437;-69
2022/04/28 09:54:36;;;;;;;;;28.25;26.25;;;;;22.44;34.87;102329.56;5053054;28;45267;-70
2022/04/28 09:57:03;;;;;;;;;24.50;22.25;;;;;22.46;35.07;102335.78;5048427;28;45527;-70
2022/04/28 09:59:29;;;;;;;;;25.25;24.50;;;;;22.60;34.53;102327.69;5053317;28;45557;-70
2022/04/28 10:01:54;;;;;;;;;26.75;23.50;;;;;22.72;34.61;102317.88;5047969;28;45407;-70
2022/04/28 10:04:20;;;;;;;;;25.00;20.33;;;;;22.95;33.69;102321.41;5056314;28;45795;-69
2022/04/28 10:06:46;;;;;;;;;28.25;25.75;;;;;23.07;34.24;102319.03;5049794;28;45628;-69
2022/04/28 10:09:17;;;;;;;;;29.50;26.75;;;;;22.59;34.24;102332.38;5060648;28;46299;-70
2022/04/28 10:11:43;;;;;;;;;22.75;21.00;;;;;22.66;34.21;102321.38;5048183;28;45208;-70
2022/04/28 10:14:10;;;;;;;;;26.00;22.25;;;;;22.36;33.48;102318.56;5058904;28;45361;-70
2022/04/28 10:16:38;;;;;;;;;21.67;21.00;;;;;22.68;33.78;102311.84;5048146;28;45251;-70
2022/04/28 10:19:10;;;;;;;;;21.33;21.33;;;;;22.76;32.40;102313.69;5057186;28;45971;-70
2022/04/28 10:21:50;;;;;;;;;15.67;14.67;;;;;22.68;31.96;102289.69;5048635;28;45318;-69
2022/04/28 10:33:00;;;;;;;;;13.33;10.67;;;;;23.53;30.76;102308.53;5052676;28;45438;-70
2022/04/28 10:35:38;;;;;;;;;21.33;18.33;;;;;23.62;29.61;102304.59;5048881;28;45331;-70
2022/04/28 10:38:30;;;;;;;;;13.33;13.33;;;;;23.66;30.03;102275.41;5055776;28;45499;-70
2022/04/28 10:41:07;;;;;;;;;20.33;17.00;;;;;23.72;29.60;102302.38;5044186;28;45497;-70
2022/04/28 10:43:32;;;;;;;;;17.00;15.33;;;;;23.95;30.10;102297.50;5057817;28;45459;-70
2022/04/28 10:46:24;;;;;;;;;22.33;15.33;;;;;24.14;28.65;102292.31;5044442;28;45362;-69
2022/04/28 10:48:55;;;;;;;;;16.00;16.00;;;;;23.98;29.22;102285.97;5046284;28;45606;-70
2022/04/28 10:51:29;;;;;;;;;16.00;15.00;;;;;24.29;28.51;102285.63;5045342;28;46404;-70
2022/04/28 10:54:23;;;;;;;;;14.33;11.67;;;;;24.47;28.66;102285.13;5052835;28;45404;-69
2022/04/28 10:56:54;;;;;;;;;18.00;14.33;;;;;24.31;27.54;102279.88;5048561;28;45397;-70
2022/04/28 10:59:32;;;;;;;;;16.67;16.67;;;;;24.21;27.89;102285.78;5055009;28;45329;-70
2022/04/28 11:02:17;;;;;;;;;13.67;13.67;;;;;24.27;28.40;102286.88;5049434;28;45658;-70
2022/04/28 11:04:49;;;;;;;;;16.33;16.33;;;;;24.32;28.01;102288.03;5054200;28;45239;-70
2022/04/28 11:07:24;;;;;;;;;15.00;13.33;;;;;24.16;27.61;102290.19;5048114;28;45315;-69
2022/04/28 11:09:58;;;;;;;;;14.00;13.33;;;;;24.38;28.48;102280.78;5059114;28;45390;-70
2022/04/28 11:12:25;;;;;;;;;16.67;15.67;;;;;24.47;27.53;102276.81;5049035;28;45403;-70
2022/04/28 11:15:08;;;;;;;;;12.67;12.33;;;;;24.55;27.12;102286.88;5053871;28;45260;-70
2022/04/28 11:17:36;;;;;;;;;12.00;11.33;;;;;24.91;27.48;102286.72;5050371;28;45659;-70
2022/04/28 11:20:14;;;;;;;;;13.00;13.00;;;;;25.24;26.10;102271.03;5053139;28;45365;-70
2022/04/28 11:22:45;;;;;;;;;12.00;10.00;;;;;25.55;25.36;102290.84;5050025;28;48221;-70
2022/04/28 11:25:13;;;;;;;;;16.00;12.33;;;;;25.57;25.07;102271.97;5054508;28;45313;-69
2022/04/28 11:27:40;;;;;;;;;14.33;11.00;;;;;25.61;25.51;102288.31;5053019;28;45370;-70
2022/04/28 11:30:09;;;;;;;;;11.33;10.67;;;;;25.04;24.83;102281.22;5058327;27;45570;-70
2022/04/28 11:32:35;;;;;;;;;10.00;10.00;;;;;24.91;25.73;102293.16;5046370;28;45737;-70
2022/04/28 11:35:01;;;;;;;;;13.00;13.00;;;;;24.20;25.34;102285.97;5047859;28;45411;-70
2022/04/28 11:37:27;;;;;;;;;12.00;12.00;;;;;24.00;26.37;102288.56;5048877;28;45480;-70